createdAt,value
2019-03-03T00:00:10.483Z,12.70
2019-03-03T00:02:39.182Z,12.37
2019-03-03T00:05:08.215Z,19.17
2019-03-03T00:07:37.330Z,13.83
2019-03-03T00:10:08.614Z,11.97
2019-03-03T00:12:37.350Z,13.68
2019-03-03T00:15:06.790Z,15.75
2019-03-03T00:17:35.520Z,19.45
2019-03-03T00:20:04.642Z,14.15
2019-03-03T00:22:33.450Z,13.73
2019-03-03T00:25:02.151Z,16.55
2019-03-03T00:27:30.874Z,16.02
2019-03-03T00:29:59.681Z,15.60
2019-03-03T00:32:28.430Z,14.53
2019-03-03T00:34:57.135Z,15.45
2019-03-03T00:37:57.268Z,14.23
2019-03-03T00:40:32.781Z,20.32
2019-03-03T00:43:26.970Z,20.32
2019-03-03T00:46:30.184Z,14.35
2019-03-03T00:49:18.189Z,20.85
2019-03-03T00:52:00.050Z,16.32
2019-03-03T00:54:57.006Z,12.98
2019-03-03T00:57:43.471Z,19.30
2019-03-03T01:00:29.926Z,12.18
2019-03-03T01:03:07.267Z,13.18
2019-03-03T01:05:58.071Z,18.02
2019-03-03T01:08:54.442Z,11.60
2019-03-03T01:11:45.350Z,14.43
2019-03-03T01:14:22.319Z,12.93
2019-03-03T01:17:03.115Z,11.97
2019-03-03T01:19:50.954Z,16.77
2019-03-03T01:22:38.758Z,15.93
2019-03-03T01:25:07.546Z,18.77
2019-03-03T01:27:36.278Z,14.47
2019-03-03T01:30:08.010Z,14.38
2019-03-03T01:32:37.603Z,13.53
2019-03-03T01:35:06.990Z,16.45
2019-03-03T01:37:36.579Z,14.95
2019-03-03T01:40:06.427Z,15.90
2019-03-03T01:42:35.235Z,17.87
2019-03-03T01:45:04.118Z,11.45
2019-03-03T01:47:36.055Z,17.70
2019-03-03T01:50:05.130Z,13.20
2019-03-03T01:52:34.770Z,16.02
2019-03-03T01:55:03.583Z,14.85
2019-03-03T01:57:32.406Z,20.10
2019-03-03T02:00:01.253Z,14.70
2019-03-03T02:02:30.034Z,12.47
2019-03-03T02:04:58.854Z,18.65
2019-03-03T02:07:27.644Z,16.65
2019-03-03T02:09:56.373Z,14.87
2019-03-03T02:12:25.095Z,15.70
2019-03-03T02:14:55.210Z,15.80
2019-03-03T02:17:24.049Z,21.05
2019-03-03T02:19:52.831Z,17.12
2019-03-03T02:22:21.567Z,13.05
2019-03-03T02:24:50.314Z,19.32
2019-03-03T02:27:19.009Z,15.95
2019-03-03T02:29:47.792Z,22.75
2019-03-03T02:32:16.517Z,19.80
2019-03-03T02:34:45.231Z,14.73
2019-03-03T02:37:13.981Z,15.80
2019-03-03T02:39:42.712Z,15.23
2019-03-03T02:42:11.571Z,14.23
2019-03-03T02:44:40.322Z,18.02
2019-03-03T02:47:09.078Z,24.98
2019-03-03T02:49:38.979Z,18.40
2019-03-03T02:52:07.994Z,18.27
2019-03-03T02:54:36.735Z,20.15
2019-03-03T02:57:05.597Z,19.42
2019-03-03T02:59:34.743Z,22.62
2019-03-03T03:02:07.227Z,31.07
2019-03-03T03:04:35.966Z,16.35
2019-03-03T03:07:33.046Z,21.37
2019-03-03T03:10:06.766Z,24.92
2019-03-03T03:12:55.576Z,17.98
2019-03-03T03:15:45.597Z,24.32
2019-03-03T03:18:20.039Z,26.37
2019-03-03T03:21:02.648Z,24.92
2019-03-03T03:23:43.314Z,19.48
2019-03-03T03:26:30.010Z,24.92
2019-03-03T03:29:12.260Z,28.10
2019-03-03T03:31:59.900Z,16.70
2019-03-03T03:35:03.141Z,23.65
2019-03-03T03:37:37.967Z,30.97
2019-03-03T03:40:36.358Z,18.17
2019-03-03T03:43:12.006Z,20.23
2019-03-03T03:46:08.722Z,28.10
2019-03-03T03:48:55.438Z,31.87
2019-03-03T03:51:42.254Z,25.40
2019-03-03T03:55:01.410Z,31.30
2019-03-03T03:57:46.103Z,22.45
2019-03-03T04:00:34.207Z,26.17
2019-03-03T04:03:26.661Z,15.75
2019-03-03T04:06:15.038Z,22.77
2019-03-03T04:08:57.389Z,31.40
2019-03-03T04:11:38.110Z,36.53
2019-03-03T04:14:12.221Z,27.00
2019-03-03T04:16:53.715Z,24.60
2019-03-03T04:19:27.593Z,31.27
2019-03-03T04:22:25.242Z,27.42
2019-03-03T04:25:10.350Z,34.75
2019-03-03T04:27:47.054Z,20.43
2019-03-03T04:30:34.933Z,24.75
2019-03-03T04:33:22.784Z,24.90
2019-03-03T04:36:09.454Z,36.35
2019-03-03T04:38:57.699Z,22.00
2019-03-03T04:41:42.800Z,28.17
2019-03-03T04:44:17.863Z,28.98
2019-03-03T04:47:08.686Z,25.75
2019-03-03T04:50:01.844Z,26.25
2019-03-03T04:52:36.070Z,26.00
2019-03-03T04:55:23.507Z,22.15
2019-03-03T04:58:14.506Z,21.30
2019-03-03T05:00:57.422Z,21.12
2019-03-03T05:03:49.824Z,20.57
2019-03-03T05:06:40.650Z,21.75
2019-03-03T05:09:32.997Z,17.25
2019-03-03T05:12:22.285Z,18.35
2019-03-03T05:14:51.815Z,15.23
2019-03-03T05:17:30.711Z,23.30
2019-03-03T05:20:00.978Z,17.05
2019-03-03T05:22:30.092Z,20.10
2019-03-03T05:25:00.337Z,15.00
2019-03-03T05:27:29.150Z,20.65
2019-03-03T05:29:57.879Z,16.85
2019-03-03T05:32:26.658Z,19.12
2019-03-03T05:34:55.802Z,12.68
2019-03-03T05:37:24.538Z,18.80
2019-03-03T05:39:54.065Z,22.32
2019-03-03T05:42:22.782Z,15.38
2019-03-03T05:44:51.522Z,17.85
2019-03-03T05:47:20.370Z,13.20
2019-03-03T05:49:49.130Z,13.30
2019-03-03T05:52:17.982Z,16.05
2019-03-03T05:54:46.744Z,14.28
2019-03-03T05:57:15.579Z,13.80
2019-03-03T05:59:44.399Z,16.73
2019-03-03T06:02:16.454Z,12.98
2019-03-03T06:04:46.339Z,17.23
2019-03-03T06:07:15.986Z,16.05
2019-03-03T06:09:44.787Z,13.18
2019-03-03T06:12:13.697Z,14.60
2019-03-03T06:14:42.502Z,19.20
2019-03-03T06:17:11.374Z,13.43
2019-03-03T06:19:40.190Z,15.43
2019-03-03T06:22:08.932Z,18.07
2019-03-03T06:24:37.700Z,17.57
2019-03-03T06:27:06.428Z,13.68
2019-03-03T06:29:35.149Z,14.43
2019-03-03T06:32:03.890Z,15.88
2019-03-03T06:34:32.923Z,16.30
2019-03-03T06:37:01.650Z,15.28
2019-03-03T06:39:30.451Z,18.02
2019-03-03T06:41:59.227Z,15.78
2019-03-03T06:44:27.982Z,16.15
2019-03-03T06:46:56.710Z,16.60
2019-03-03T06:49:25.523Z,16.67
2019-03-03T06:51:54.267Z,17.10
2019-03-03T06:54:23.008Z,18.40
2019-03-03T06:56:51.854Z,13.68
2019-03-03T06:59:20.750Z,19.12
2019-03-03T07:01:49.613Z,17.37
2019-03-03T07:04:18.459Z,17.42
2019-03-03T07:06:47.299Z,17.42
2019-03-03T07:09:16.111Z,14.53
2019-03-03T07:11:44.901Z,15.68
2019-03-03T07:14:13.694Z,18.50
2019-03-03T07:16:42.446Z,17.92
2019-03-03T07:19:11.336Z,16.50
2019-03-03T07:21:40.171Z,16.85
2019-03-03T07:24:08.953Z,21.77
2019-03-03T07:26:37.701Z,20.37
2019-03-03T07:29:06.507Z,16.05
2019-03-03T07:31:35.288Z,16.90
2019-03-03T07:34:04.509Z,14.93
2019-03-03T07:36:33.287Z,15.43
2019-03-03T07:39:02.211Z,12.80
2019-03-03T07:41:31.115Z,15.48
2019-03-03T07:43:59.855Z,15.00
2019-03-03T07:46:28.574Z,10.85
2019-03-03T07:48:57.346Z,13.05
2019-03-03T07:51:26.075Z,13.60
2019-03-03T07:53:54.869Z,14.13
2019-03-03T07:56:23.883Z,13.75
2019-03-03T07:58:52.623Z,15.70
2019-03-03T08:01:21.442Z,14.40
2019-03-03T08:03:50.174Z,11.63
2019-03-03T08:06:18.915Z,15.18
2019-03-03T08:08:47.643Z,13.72
2019-03-03T08:11:16.382Z,13.43
2019-03-03T08:13:45.238Z,13.28
2019-03-03T08:16:13.984Z,11.95
2019-03-03T08:18:42.686Z,15.50
2019-03-03T08:21:11.582Z,13.32
2019-03-03T08:23:40.286Z,13.22
2019-03-03T08:26:09.040Z,13.38
2019-03-03T08:28:37.750Z,16.30
2019-03-03T08:31:06.909Z,10.40
2019-03-03T08:33:35.686Z,11.75
2019-03-03T08:36:04.489Z,10.43
2019-03-03T08:38:33.200Z,12.60
2019-03-03T08:41:01.922Z,13.17
2019-03-03T08:43:37.072Z,11.83
2019-03-03T08:46:31.092Z,13.65
2019-03-03T08:49:31.115Z,8.53
2019-03-03T08:52:17.591Z,12.50
2019-03-03T08:55:00.132Z,14.20
2019-03-03T08:57:46.393Z,9.07
2019-03-03T09:00:30.998Z,12.37
2019-03-03T09:03:28.170Z,12.88
2019-03-03T09:06:17.265Z,11.70
2019-03-03T09:08:51.775Z,13.40
2019-03-03T09:11:32.790Z,11.48
2019-03-03T09:14:26.624Z,9.33
2019-03-03T09:17:06.096Z,9.05
2019-03-03T09:19:59.674Z,9.13
2019-03-03T09:22:40.739Z,8.83
2019-03-03T09:25:28.558Z,8.80
2019-03-03T09:28:22.350Z,8.73
2019-03-03T09:30:57.708Z,9.23
2019-03-03T09:33:44.646Z,12.95
2019-03-03T09:36:19.656Z,8.48
2019-03-03T09:39:13.594Z,7.67
2019-03-03T09:41:58.290Z,7.55
2019-03-03T09:44:45.155Z,12.82
2019-03-03T09:47:32.998Z,7.22
2019-03-03T09:50:20.781Z,9.13
2019-03-03T09:53:10.223Z,13.03
2019-03-03T09:55:48.805Z,7.75
2019-03-03T09:58:24.737Z,7.22
2019-03-03T10:01:09.362Z,10.15
2019-03-03T10:03:46.787Z,9.90
2019-03-03T10:06:23.418Z,10.40
2019-03-03T10:09:13.322Z,7.22
2019-03-03T10:11:56.726Z,9.93
2019-03-03T10:14:43.442Z,11.10
2019-03-03T10:17:18.484Z,10.55
2019-03-03T10:20:04.911Z,11.03
2019-03-03T10:22:57.080Z,10.47
2019-03-03T10:25:51.022Z,13.73
2019-03-03T10:28:38.870Z,13.93
2019-03-03T10:31:13.642Z,12.30
2019-03-03T10:34:04.202Z,12.45
2019-03-03T10:36:58.190Z,11.63
2019-03-03T10:39:40.886Z,16.17
2019-03-03T10:42:16.382Z,11.93
2019-03-03T10:44:52.879Z,10.45
2019-03-03T10:47:39.477Z,11.83
2019-03-03T10:50:30.471Z,12.53
2019-03-03T10:53:09.209Z,9.70
2019-03-03T10:55:47.606Z,11.73
2019-03-03T10:58:31.055Z,11.85
2019-03-03T11:01:16.606Z,9.63
2019-03-03T11:04:04.419Z,11.63
2019-03-03T11:06:52.216Z,11.80
2019-03-03T11:09:30.778Z,11.12
2019-03-03T11:12:09.834Z,9.27
2019-03-03T11:14:55.050Z,10.97
2019-03-03T11:17:41.952Z,11.37
2019-03-03T11:20:32.598Z,11.07
2019-03-03T11:23:22.384Z,13.83
2019-03-03T11:26:09.327Z,12.50
2019-03-03T11:28:56.702Z,14.50
2019-03-03T11:31:47.723Z,10.97
2019-03-03T11:34:31.974Z,15.50
2019-03-03T11:37:18.679Z,11.00
2019-03-03T11:40:09.766Z,13.50
2019-03-03T11:42:47.907Z,9.03
2019-03-03T11:45:50.331Z,10.13
2019-03-03T11:48:46.847Z,12.53
2019-03-03T11:51:33.625Z,14.67
2019-03-03T11:54:21.453Z,15.77
2019-03-03T11:57:11.998Z,18.23
2019-03-03T12:00:02.875Z,11.33
2019-03-03T12:03:01.649Z,13.37
2019-03-03T12:05:56.008Z,17.07
2019-03-03T12:09:02.413Z,13.07
2019-03-03T12:11:50.286Z,14.30
2019-03-03T12:14:36.573Z,17.13
2019-03-03T12:17:12.060Z,15.13
2019-03-03T12:20:00.608Z,19.00
2019-03-03T12:22:45.243Z,19.80
2019-03-03T12:25:21.801Z,22.37
2019-03-03T12:28:10.181Z,25.60
2019-03-03T12:30:59.088Z,24.10
2019-03-03T12:33:39.002Z,25.82
2019-03-03T12:36:29.755Z,23.10
2019-03-03T12:39:07.683Z,26.33
2019-03-03T12:42:06.482Z,22.47
2019-03-03T12:45:19.961Z,23.13
2019-03-03T12:47:57.691Z,21.10
2019-03-03T12:51:07.857Z,20.80
2019-03-03T12:53:54.529Z,25.75
2019-03-03T12:56:45.406Z,23.33
2019-03-03T12:59:28.974Z,29.80
2019-03-03T13:02:26.134Z,25.23
2019-03-03T13:05:13.926Z,29.80
2019-03-03T13:08:17.187Z,30.17
2019-03-03T13:11:08.063Z,22.67
2019-03-03T13:13:44.815Z,23.77
2019-03-03T13:16:44.914Z,28.07
2019-03-03T13:19:33.098Z,18.07
2019-03-03T13:22:21.746Z,15.03
2019-03-03T13:25:18.415Z,20.53
2019-03-03T13:28:10.066Z,17.47
2019-03-03T13:30:56.607Z,19.10
2019-03-03T13:33:59.525Z,17.90
2019-03-03T13:36:53.071Z,26.20
2019-03-03T13:39:52.726Z,18.77
2019-03-03T13:42:41.754Z,22.53
2019-03-03T13:45:11.406Z,27.33
2019-03-03T13:47:40.138Z,22.57
2019-03-03T13:50:11.438Z,15.30
2019-03-03T13:52:40.159Z,19.37
2019-03-03T13:55:09.982Z,11.30
2019-03-03T13:57:38.911Z,18.80
2019-03-03T14:00:09.082Z,21.10
2019-03-03T14:02:37.839Z,16.73
2019-03-03T14:05:06.867Z,17.00
2019-03-03T14:07:35.616Z,16.63
2019-03-03T14:10:06.021Z,26.50
2019-03-03T14:12:34.914Z,20.37
2019-03-03T14:15:03.666Z,17.60
2019-03-03T14:17:32.400Z,17.55
2019-03-03T14:20:01.180Z,14.30
2019-03-03T14:22:29.907Z,17.43
2019-03-03T14:24:58.626Z,17.83
2019-03-03T14:27:27.378Z,14.40
2019-03-03T14:29:56.237Z,16.63
2019-03-03T14:32:24.967Z,20.17
2019-03-03T14:34:53.716Z,25.77
2019-03-03T14:37:22.462Z,18.80
2019-03-03T14:39:51.198Z,17.97
2019-03-03T14:42:19.919Z,19.43
2019-03-03T14:44:48.636Z,17.17
2019-03-03T14:47:17.375Z,13.67
2019-03-03T14:49:46.170Z,16.27
2019-03-03T14:52:14.930Z,15.50
2019-03-03T14:54:43.677Z,13.60
2019-03-03T14:57:13.707Z,21.00
2019-03-03T14:59:42.451Z,14.37
2019-03-03T15:02:11.262Z,20.97
2019-03-03T15:04:39.983Z,23.17
2019-03-03T15:07:08.723Z,20.83
2019-03-03T15:09:37.441Z,19.75
2019-03-03T15:12:06.155Z,18.30
2019-03-03T15:14:34.993Z,21.10
2019-03-03T15:17:03.790Z,20.53
2019-03-03T15:19:32.593Z,14.70
2019-03-03T15:22:01.323Z,21.57
2019-03-03T15:24:32.454Z,21.83
2019-03-03T15:27:01.294Z,17.20
2019-03-03T15:29:30.039Z,22.65
2019-03-03T15:31:58.838Z,15.70
2019-03-03T15:34:27.639Z,20.17
2019-03-03T15:36:56.408Z,22.80
2019-03-03T15:39:25.218Z,17.77
2019-03-03T15:41:53.974Z,17.85
2019-03-03T15:44:22.742Z,15.77
2019-03-03T15:46:51.471Z,21.30
2019-03-03T15:49:20.779Z,23.07
2019-03-03T15:51:49.543Z,21.20
2019-03-03T15:54:18.268Z,22.10
2019-03-03T15:56:46.979Z,21.40
2019-03-03T15:59:15.740Z,11.63
2019-03-03T16:01:44.526Z,19.73
2019-03-03T16:04:13.346Z,19.03
2019-03-03T16:06:42.058Z,20.23
2019-03-03T16:09:15.862Z,23.27
2019-03-03T16:11:44.927Z,16.63
2019-03-03T16:14:13.752Z,20.87
2019-03-03T16:16:42.484Z,17.53
2019-03-03T16:19:11.199Z,15.43
2019-03-03T16:21:39.986Z,19.60
2019-03-03T16:24:08.786Z,16.60
2019-03-03T16:26:37.565Z,15.00
2019-03-03T16:29:06.293Z,16.17
2019-03-03T16:31:35.035Z,17.07
2019-03-03T16:34:03.834Z,15.70
2019-03-03T16:36:32.547Z,11.20
2019-03-03T16:39:01.294Z,14.60
2019-03-03T16:41:30.024Z,18.57
2019-03-03T16:43:58.747Z,21.67
2019-03-03T16:46:27.458Z,18.03
2019-03-03T16:48:56.164Z,18.30
2019-03-03T16:51:24.913Z,16.10
2019-03-03T16:53:53.618Z,22.40
2019-03-03T16:56:22.347Z,17.93
2019-03-03T16:58:51.075Z,20.93
2019-03-03T17:01:19.926Z,21.30
2019-03-03T17:03:50.730Z,16.90
2019-03-03T17:06:19.559Z,20.37
2019-03-03T17:08:48.270Z,16.77
2019-03-03T17:11:16.998Z,19.47
2019-03-03T17:13:45.730Z,14.53
2019-03-03T17:16:14.474Z,20.13
2019-03-03T17:18:43.176Z,23.30
2019-03-03T17:21:11.913Z,10.80
2019-03-03T17:23:40.636Z,15.30
2019-03-03T17:26:09.575Z,13.97
2019-03-03T17:28:38.371Z,15.10
2019-03-03T17:31:07.141Z,18.77
2019-03-03T17:33:37.521Z,17.83
2019-03-03T17:36:07.571Z,12.90
2019-03-03T17:38:36.465Z,18.80
2019-03-03T17:41:05.246Z,15.07
2019-03-03T17:43:36.032Z,14.07
2019-03-03T17:46:04.960Z,18.40
2019-03-03T17:48:33.747Z,19.50
2019-03-03T17:51:02.560Z,15.17
2019-03-03T17:53:31.259Z,16.50
2019-03-03T17:55:59.992Z,17.47
2019-03-03T17:58:28.733Z,13.33
2019-03-03T18:00:57.446Z,16.20
2019-03-03T18:03:26.154Z,12.97
2019-03-03T18:05:54.908Z,17.13
2019-03-03T18:08:23.615Z,19.50
2019-03-03T18:10:52.347Z,18.50
2019-03-03T18:13:21.181Z,23.47
2019-03-03T18:15:49.912Z,21.93
2019-03-03T18:18:18.678Z,20.65
2019-03-03T18:20:47.408Z,16.50
2019-03-03T18:23:16.149Z,16.17
2019-03-03T18:25:44.934Z,16.03
2019-03-03T18:28:13.702Z,19.70
2019-03-03T18:30:42.429Z,16.73
2019-03-03T18:33:11.159Z,19.42
2019-03-03T18:35:39.997Z,16.30
2019-03-03T18:38:08.746Z,13.37
2019-03-03T18:40:37.456Z,21.47
2019-03-03T18:43:06.181Z,13.33
2019-03-03T18:45:35.034Z,11.20
2019-03-03T18:48:03.835Z,18.20
2019-03-03T18:50:32.741Z,14.73
2019-03-03T18:53:01.456Z,12.83
2019-03-03T18:55:30.254Z,14.60
2019-03-03T18:57:59.014Z,13.67
2019-03-03T19:00:29.491Z,13.37
2019-03-03T19:02:58.591Z,12.33
2019-03-03T19:05:27.547Z,15.90
2019-03-03T19:07:56.372Z,10.57
2019-03-03T19:10:25.527Z,13.50
2019-03-03T19:12:54.511Z,16.37
2019-03-03T19:15:23.291Z,14.47
2019-03-03T19:17:52.094Z,12.93
2019-03-03T19:20:20.907Z,16.30
2019-03-03T19:22:49.694Z,13.23
2019-03-03T19:25:18.431Z,13.20
2019-03-03T19:27:47.159Z,18.53
2019-03-03T19:30:18.030Z,12.33
2019-03-03T19:32:48.529Z,12.53
2019-03-03T19:35:17.346Z,10.33
2019-03-03T19:37:46.311Z,12.93
2019-03-03T19:40:15.289Z,9.43
2019-03-03T19:42:44.107Z,11.90
2019-03-03T19:45:19.226Z,12.80
2019-03-03T19:48:08.189Z,11.20
2019-03-03T19:50:38.391Z,10.60
2019-03-03T19:53:07.306Z,7.27
2019-03-03T19:55:36.165Z,11.00
2019-03-03T19:58:05.081Z,9.43
2019-03-03T20:00:36.810Z,9.30
2019-03-03T20:03:05.270Z,11.07
2019-03-03T20:05:34.340Z,10.17
2019-03-03T20:08:03.628Z,10.80
2019-03-03T20:10:32.909Z,13.53
2019-03-03T20:13:01.842Z,9.33
2019-03-03T20:15:30.585Z,8.60
2019-03-03T20:17:59.399Z,14.40
2019-03-03T20:20:28.271Z,10.40
2019-03-03T20:22:57.046Z,12.10
2019-03-03T20:25:25.836Z,10.57
2019-03-03T20:27:54.767Z,10.90
2019-03-03T20:30:23.686Z,9.47
2019-03-03T20:32:52.578Z,9.50
2019-03-03T20:35:22.448Z,7.57
2019-03-03T20:37:51.312Z,11.73
2019-03-03T20:40:20.211Z,7.60
2019-03-03T20:42:49.031Z,9.57
2019-03-03T20:45:20.197Z,9.67
2019-03-03T20:47:49.097Z,6.07
2019-03-03T20:50:19.358Z,6.60
2019-03-03T20:52:48.187Z,10.63
2019-03-03T20:55:18.211Z,6.83
2019-03-03T20:57:47.225Z,11.17
2019-03-03T21:00:18.012Z,10.67
2019-03-03T21:02:47.216Z,7.80
2019-03-03T21:05:15.941Z,11.37
2019-03-03T21:07:51.328Z,9.73
2019-03-03T21:10:17.058Z,7.03
2019-03-03T21:12:45.815Z,7.93
2019-03-03T21:15:14.650Z,14.33
2019-03-03T21:17:43.399Z,11.17
2019-03-03T21:20:14.316Z,7.00
2019-03-03T21:22:43.126Z,6.10
2019-03-03T21:25:12.324Z,7.67
2019-03-03T21:27:41.676Z,8.10
2019-03-03T21:30:16.181Z,6.40
2019-03-03T21:32:44.903Z,7.30
2019-03-03T21:35:14.722Z,8.60
2019-03-03T21:37:43.553Z,7.67
2019-03-03T21:40:13.544Z,6.93
2019-03-03T21:42:42.371Z,7.93
2019-03-03T21:45:12.376Z,6.03
2019-03-03T21:47:41.094Z,10.33
2019-03-03T21:50:11.991Z,12.10
2019-03-03T21:52:40.759Z,9.50
2019-03-03T21:55:09.727Z,9.00
2019-03-03T21:57:38.440Z,13.40
2019-03-03T22:00:39.202Z,7.20
2019-03-03T22:03:07.926Z,9.10
2019-03-03T22:05:36.634Z,11.10
2019-03-03T22:08:05.465Z,9.43
2019-03-03T22:10:34.644Z,7.17
2019-03-03T22:13:11.814Z,8.33
2019-03-03T22:15:40.886Z,7.97
2019-03-03T22:18:09.698Z,7.23
2019-03-03T22:20:38.523Z,8.83
2019-03-03T22:23:07.226Z,5.63
2019-03-03T22:25:35.949Z,5.50
2019-03-03T22:28:04.686Z,6.03
2019-03-03T22:30:33.386Z,8.40
2019-03-03T22:33:02.091Z,5.90
2019-03-03T22:35:30.830Z,5.03
2019-03-03T22:37:59.655Z,4.03
2019-03-03T22:40:28.437Z,7.57
2019-03-03T22:42:57.505Z,4.97
2019-03-03T22:45:26.223Z,7.23
2019-03-03T22:47:54.965Z,6.07
2019-03-03T22:50:23.685Z,4.83
2019-03-03T22:52:53.686Z,3.97
2019-03-03T22:55:22.507Z,4.70
2019-03-03T22:57:51.207Z,4.70
2019-03-03T23:00:56.535Z,4.00
2019-03-03T23:03:56.566Z,7.03
2019-03-03T23:06:39.047Z,6.87
2019-03-03T23:09:51.910Z,7.83
2019-03-03T23:12:45.405Z,5.80
2019-03-03T23:15:26.074Z,2.73
2019-03-03T23:18:21.602Z,5.43
2019-03-03T23:21:15.038Z,5.90
2019-03-03T23:24:24.282Z,4.63
2019-03-03T23:26:53.005Z,8.97
2019-03-03T23:29:21.714Z,4.70
2019-03-03T23:31:50.423Z,5.43
2019-03-03T23:34:19.146Z,7.00
2019-03-03T23:36:48.341Z,4.57
2019-03-03T23:39:17.073Z,4.67
2019-03-03T23:41:58.084Z,7.37
2019-03-03T23:44:26.834Z,4.37
2019-03-03T23:46:55.552Z,3.70
2019-03-03T23:49:24.326Z,5.60
2019-03-03T23:51:53.043Z,5.37
2019-03-03T23:54:21.754Z,7.83
2019-03-03T23:56:50.498Z,5.40
2019-03-03T23:59:20.231Z,7.23
